Taurus — WDB5562 — position and weather

sailwx.info

Track history (hours):
 
Tides and Currents Weather Stations Pressure Air Temp Water Temp Dewpoint Dewpoint Depression Visibility Wind Speed Wind Dir Waves Ship Positions

Taurus

Owner: Kirby Offshore Marine, LLC, Staten Island, NY. More information available from US FCC via Universal Licensing System and Coast Guard Vessel Documentation Center.

Last reported at 2015-May-27 01:33 UTC. Time now 2015-May-27 01:45 UTC.
Position N 40°38' W 074°10'.

Length 24 m.

Type: Tug. MMSI: 366910990.

Date/timePositionNaut miles runAvg speedWind from/ knotsBaromVisibWave heightAir tempDewpointWater temp
2015-May-27 01:33N 40°38' W 074°10'0 0.0
2015-May-27 00:33N 40°38' W 074°10'0 0.0
2015-May-26 23:33N 40°38' W 074°10'0 0.0
2015-May-26 22:33N 40°38' W 074°10'0 0.0
2015-May-26 21:33N 40°38' W 074°10'0 0.0
2015-May-26 20:33N 40°38' W 074°10'2 1.6
2015-May-26 19:33N 40°38' W 074°12'2 2.1
2015-May-26 18:33N 40°36' W 074°12'3 2.9
2015-May-26 17:33N 40°33' W 074°14'1 0.9
2015-May-26 16:32N 40°33' W 074°15'7 7.1
2015-May-26 15:34N 40°39' W 074°10'0 0.1
2015-May-26 14:33N 40°39' W 074°10'0 0.0
2015-May-26 13:33N 40°39' W 074°10'2 1.9
2015-May-26 12:30N 40°38' W 074°12'5 5.2
2015-May-26 11:33N 40°39' W 074°06'8 7.9
2015-May-26 10:33N 40°44' W 073°58'1 1.2
2015-May-26 09:33N 40°44' W 073°56'0 0.1
2015-May-26 08:33N 40°44' W 073°57'0 0.0
2015-May-26 07:31N 40°44' W 073°57'5 5.0
2015-May-26 06:33N 40°41' W 074°01'7 7.5
2015-May-26 05:33N 40°39' W 074°11'6 4.6
2015-May-26 04:15N 40°33' W 074°14'0 0.0
2015-May-26 02:04N 40°33' W 074°14'0 0.1
2015-May-25 20:22N 40°34' W 074°14'0 0.0
2015-May-25 18:32N 40°34' W 074°14'0 0.0
2015-May-25 17:32N 40°34' W 074°14'1 1.4
2015-May-25 16:33N 40°33' W 074°15'1 1.1
2015-May-25 15:17N 40°34' W 074°14'0 0.0
2015-May-25 14:25N 40°34' W 074°14'0 0.0
2015-May-25 13:29N 40°34' W 074°14'2 1.5
2015-May-25 12:25N 40°32' W 074°15'5 5.7
2015-May-25 11:33N 40°37' W 074°12'7 6.6
2015-May-25 10:33N 40°39' W 074°04'3 3.2
2015-May-25 09:33N 40°41' W 074°01'9 8.9
2015-May-25 08:33N 40°48' W 073°54'7 6.9
2015-May-25 07:31N 40°51' W 073°45'8 8.6
2015-May-25 06:33N 40°56' W 073°36'9 8.8
2015-May-25 05:33N 40°60' W 073°26'9 8.6
2015-May-25 04:33N 41°03' W 073°15'8 8.5
2015-May-25 03:33N 41°07' W 073°05'8 8.3
2015-May-25 02:33N 41°12' W 072°57'5 5.4
2015-May-25 01:33N 41°18' W 072°54'0 0.0
2015-May-25 00:33N 41°18' W 072°54'0 0.0
2015-May-24 23:33N 41°18' W 072°54'0 0.0
2015-May-24 22:33N 41°18' W 072°54'0 0.0
2015-May-24 21:32N 41°18' W 072°54'0 0.0
2015-May-24 20:33N 41°18' W 072°54'0 0.5
2015-May-24 19:33N 41°18' W 072°54'0 0.0
2015-May-24 18:33N 41°18' W 072°54'0 0.0
2015-May-24 17:33N 41°18' W 072°54'0 0.0
2015-May-24 16:33N 41°18' W 072°54'0 0.0
2015-May-24 15:33N 41°18' W 072°54'0 0.0
2015-May-24 14:31N 41°18' W 072°54'0 0.0
2015-May-24 13:33N 41°18' W 072°54'0 0.0
2015-May-24 12:24N 41°18' W 072°54'0 0.0
2015-May-24 11:27N 41°18' W 072°54'0 0.0
2015-May-24 10:33N 41°18' W 072°54'0 0.0
2015-May-24 09:33N 41°18' W 072°54'4 4.3
2015-May-24 08:34N 41°14' W 072°55'7 6.7
2015-May-24 07:33N 41°09' W 073°01'7 6.7
2015-May-24 06:34N 41°05' W 073°08'6 6.4
2015-May-24 05:33N 41°03' W 073°16'7 7.0
2015-May-24 04:33N 41°00' W 073°25'8 7.6
2015-May-24 03:33N 40°57' W 073°34'8 7.6
2015-May-24 02:33N 40°53' W 073°43'7 7.0
2015-May-24 01:33N 40°48' W 073°49'6 6.4
2015-May-24 00:33N 40°46' W 073°57'5 4.8
2015-May-23 23:33N 40°42' W 074°00'4 4.3
2015-May-23 22:33N 40°39' W 074°05'5 5.3
2015-May-23 21:33N 40°38' W 074°12'0 0.3
2015-May-23 20:33N 40°39' W 074°11'1 1.1
2015-May-23 19:33N 40°38' W 074°10'0 0.0
2015-May-23 18:33N 40°38' W 074°10'0 0.0
2015-May-23 17:33N 40°38' W 074°10'0 0.0
2015-May-23 16:33N 40°38' W 074°10'0 0.0
2015-May-23 15:34N 40°38' W 074°10'0 0.0
2015-May-23 14:33N 40°38' W 074°10'0 0.0
2015-May-23 13:33N 40°38' W 074°10'0 0.0
2015-May-23 12:33N 40°38' W 074°10'0 0.0
2015-May-23 11:33N 40°38' W 074°10'0 0.0
2015-May-23 10:33N 40°38' W 074°10'1 1.2
2015-May-23 09:33N 40°38' W 074°11'2 1.8
2015-May-23 08:33N 40°38' W 074°09'1 0.6
2015-May-23 07:33N 40°38' W 074°10'0 0.0
2015-May-23 06:33N 40°38' W 074°10'0 0.0
2015-May-23 05:33N 40°38' W 074°10'0 0.0
2015-May-23 04:33N 40°38' W 074°10'0 0.0
2015-May-23 03:33N 40°38' W 074°10'0 0.0
2015-May-23 02:33N 40°38' W 074°10'0 0.0
2015-May-23 01:33N 40°38' W 074°10'2 2.0
2015-May-23 00:33N 40°37' W 074°12'6 4.4
2015-May-22 23:14N 40°32' W 074°15'3 3.4
2015-May-22 22:25N 40°34' W 074°13'5 5.7
2015-May-22 21:34N 40°39' W 074°10'0 0.3
2015-May-22 20:33N 40°38' W 074°10'0 0.0
2015-May-22 19:33N 40°38' W 074°10'0 0.0
2015-May-22 18:33N 40°38' W 074°10'0 0.0
2015-May-22 17:33N 40°38' W 074°10'0 0.0
2015-May-22 16:33N 40°38' W 074°10'0 0.0
2015-May-22 15:32N 40°38' W 074°10'0 0.0
2015-May-22 14:33N 40°38' W 074°10'0 0.0
2015-May-22 13:33N 40°38' W 074°10'1 1.3
2015-May-22 12:33N 40°38' W 074°12'1 0.9
2015-May-22 11:32N 40°39' W 074°11'1 0.7
2015-May-22 10:33N 40°39' W 074°10'0 0.0
2015-May-22 09:33N 40°39' W 074°10'0 0.0
2015-May-22 08:33N 40°39' W 074°10'1 1.1
2015-May-22 07:33N 40°39' W 074°08'2 1.6
2015-May-22 06:33N 40°39' W 074°06'5 4.6
2015-May-22 05:32N 40°38' W 074°12'0 0.5
2015-May-22 04:33N 40°38' W 074°12'0 0.0
2015-May-22 02:21N 40°38' W 074°12'3 3.2
2015-May-22 01:27N 40°35' W 074°13'3 2.6
2015-May-22 00:09N 40°32' W 074°15'2 1.7
2015-May-21 23:15N 40°34' W 074°14'0 0.0
2015-May-21 22:30N 40°34' W 074°14'0 0.0
2015-May-21 21:27N 40°34' W 074°14'4 4.5
2015-May-21 20:33N 40°38' W 074°12'2 2.0
2015-May-21 19:33N 40°39' W 074°10'0 0.0
2015-May-21 18:33N 40°39' W 074°10'0 0.0
2015-May-21 17:33N 40°39' W 074°10'0 0.0
2015-May-21 16:33N 40°39' W 074°10'0 0.0
2015-May-21 15:33N 40°39' W 074°10'1 1.5
2015-May-21 14:33N 40°38' W 074°12'6 5.8
2015-May-21 13:28N 40°32' W 074°15'3 2.8
2015-May-21 12:26N 40°34' W 074°13'5 5.2
2015-May-21 11:33N 40°39' W 074°10'0 0.0
2015-May-21 10:33N 40°39' W 074°10'0 0.0
2015-May-21 09:33N 40°39' W 074°10'0 0.0
2015-May-21 08:33N 40°39' W 074°10'0 0.0
2015-May-21 07:33N 40°39' W 074°10'0 0.0
2015-May-21 06:33N 40°39' W 074°10'0 0.0
2015-May-21 05:33N 40°39' W 074°10'2 2.0
2015-May-21 04:33N 40°38' W 074°12'2 2.0
2015-May-21 03:33N 40°38' W 074°10'0 0.0
2015-May-21 02:33N 40°38' W 074°10'0 0.0
2015-May-21 01:33N 40°38' W 074°10'0 0.0
2015-May-21 00:33N 40°38' W 074°10'0 0.0
2015-May-20 23:33N 40°38' W 074°10'0 0.0
2015-May-20 22:33N 40°38' W 074°10'0 0.0
2015-May-20 21:33N 40°38' W 074°10'0 0.0
2015-May-20 20:33N 40°38' W 074°10'0 0.0
2015-May-20 19:33N 40°38' W 074°10'5 4.9
2015-May-20 18:33N 40°39' W 074°03'7 7.4
2015-May-20 17:33N 40°46' W 073°60'1 0.6
2015-May-20 16:33N 40°46' W 074°01'3 3.3
2015-May-20 15:33N 40°43' W 074°01'4 4.1
2015-May-20 14:33N 40°39' W 074°04'2 2.2
2015-May-20 13:33N 40°39' W 074°07'2 2.3
2015-May-20 12:33N 40°38' W 074°10'0 0.0
2015-May-20 11:33N 40°38' W 074°10'0 0.0
2015-May-20 10:33N 40°38' W 074°10'0 0.0
2015-May-20 09:33N 40°38' W 074°10'0 0.0
2015-May-20 08:33N 40°38' W 074°10'0 0.0
2015-May-20 07:33N 40°38' W 074°10'0 0.0
2015-May-20 06:33N 40°38' W 074°10'0 0.0
2015-May-20 05:33N 40°38' W 074°10'0 0.0
2015-May-20 04:33N 40°38' W 074°10'0 0.0
2015-May-20 03:33N 40°38' W 074°10'0 0.0
2015-May-20 02:33N 40°38' W 074°10'0 0.0
2015-May-20 01:33N 40°38' W 074°10'0 0.0
2015-May-20 00:33N 40°38' W 074°10'0 0.0
2015-May-19 23:33N 40°38' W 074°10'0 0.0
2015-May-19 22:33N 40°38' W 074°10'0 0.1
2015-May-19 21:33N 40°39' W 074°10'2 2.3
2015-May-19 20:33N 40°39' W 074°07'2 2.0
2015-May-19 19:33N 40°38' W 074°10'0 0.3
2015-May-19 18:33N 40°38' W 074°10'0 0.0
2015-May-19 17:29N 40°38' W 074°10'0 0.0
2015-May-19 16:33N 40°38' W 074°10'0 0.0
2015-May-19 15:33N 40°38' W 074°10'0 0.0
2015-May-19 14:33N 40°38' W 074°10'0 0.0
2015-May-19 13:28N 40°38' W 074°10'3 3.2
2015-May-19 12:33N 40°36' W 074°12'3 2.9
2015-May-19 11:33N 40°39' W 074°11'5 4.6
2015-May-19 10:33N 40°39' W 074°05'5 5.4
2015-May-19 09:33N 40°42' W 073°59'7 6.6
2015-May-19 08:31N 40°48' W 073°54'6 5.9
2015-May-19 07:32N 40°50' W 073°47'5 5.0
2015-May-19 06:30N 40°52' W 073°40'2 1.4
2015-May-19 05:07N 40°50' W 073°39'0 0.0
2015-May-19 04:29N 40°50' W 073°39'0 0.0
2015-May-19 03:13N 40°50' W 073°39'0 0.0
2015-May-19 02:32N 40°50' W 073°39'2 2.5
2015-May-19 01:33N 40°52' W 073°40'0 0.1
2015-May-19 00:13N 40°52' W 073°40'0 0.1
2015-May-18 23:33N 40°52' W 073°40'3 2.8
2015-May-18 22:33N 40°53' W 073°44'7 6.8
2015-May-18 21:33N 40°48' W 073°50'6 6.0
2015-May-18 20:33N 40°45' W 073°58'4 4.1
2015-May-18 19:33N 40°42' W 074°00'4 4.0
2015-May-18 18:33N 40°39' W 074°04'2 2.2
2015-May-18 17:33N 40°39' W 074°07'0 0.0
2015-May-18 16:32N 40°39' W 074°07'0 0.0
2015-May-18 15:33N 40°39' W 074°07'2 2.3
2015-May-18 14:33N 40°39' W 074°04'7 6.6
2015-May-18 13:33N 40°34' W 073°59'8 7.5
2015-May-18 12:29N 40°36' W 073°49'3 3.6
2015-May-18 11:32N 40°38' W 073°45'0 0.0
2015-May-18 10:33N 40°38' W 073°45'0 0.0
2015-May-18 09:32N 40°38' W 073°45'0 0.0
2015-May-18 08:19N 40°38' W 073°45'0 0.0
2015-May-18 03:11N 40°38' W 073°45'2 3.1
2015-May-18 02:33N 40°37' W 073°47'5 5.3
2015-May-18 01:33N 40°34' W 073°53'6 6.2
2015-May-18 00:33N 40°34' W 074°01'6 6.4
2015-May-17 23:33N 40°30' W 074°08'5 5.1
2015-May-17 22:29N 40°31' W 074°15'1 1.2
2015-May-17 21:18N 40°32' W 074°15'3 3.9
2015-May-17 20:32N 40°35' W 074°13'4 4.6
2015-May-17 19:34N 40°38' W 074°10'0 0.3
2015-May-17 18:33N 40°38' W 074°10'0 0.0
2015-May-17 17:33N 40°38' W 074°10'0 0.0
2015-May-17 16:33N 40°38' W 074°10'1 1.4
2015-May-17 15:33N 40°38' W 074°12'0 0.0
2015-May-17 14:33N 40°38' W 074°12'3 2.7
2015-May-17 13:32N 40°36' W 074°12'1 1.0
2015-May-17 12:16N 40°34' W 074°13'5 7.0
2015-May-17 11:33N 40°39' W 074°10'5 4.6
2015-May-17 10:33N 40°39' W 074°04'0 0.0
2015-May-17 09:33N 40°39' W 074°04'0 0.0
2015-May-17 08:33N 40°39' W 074°04'0 0.1
2015-May-17 07:33N 40°39' W 074°04'0 0.1
2015-May-17 06:33N 40°39' W 074°04'0 0.1
2015-May-17 05:33N 40°39' W 074°04'0 0.1
2015-May-17 04:33N 40°39' W 074°04'0 0.0
2015-May-17 03:33N 40°39' W 074°04'0 0.0
2015-May-17 02:33N 40°39' W 074°04'  
Track history (hours):
 
Tides and Currents Weather Stations Pressure Air Temp Water Temp Dewpoint Dewpoint Depression Visibility Wind Speed Wind Dir Waves Ship Positions

Taurus

Owner: Kirby Offshore Marine, LLC, Staten Island, NY. More information available from US FCC via Universal Licensing System and Coast Guard Vessel Documentation Center.

Last reported at 2015-May-27 01:33 UTC. Time now 2015-May-27 01:45 UTC.
Position N 40°38' W 074°10'.

Length 24 m.

Type: Tug. MMSI: 366910990.

Date/timePositionNaut miles runAvg speedWind from/ knotsBaromVisibWave heightAir tempDewpointWater temp
2015-May-27 01:33N 40°38' W 074°10'0 0.0
2015-May-27 00:33N 40°38' W 074°10'0 0.0
2015-May-26 23:33N 40°38' W 074°10'0 0.0
2015-May-26 22:33N 40°38' W 074°10'0 0.0
2015-May-26 21:33N 40°38' W 074°10'0 0.0
2015-May-26 20:33N 40°38' W 074°10'2 1.6
2015-May-26 19:33N 40°38' W 074°12'2 2.1
2015-May-26 18:33N 40°36' W 074°12'3 2.9
2015-May-26 17:33N 40°33' W 074°14'1 0.9
2015-May-26 16:32N 40°33' W 074°15'7 7.1
2015-May-26 15:34N 40°39' W 074°10'0 0.1
2015-May-26 14:33N 40°39' W 074°10'0 0.0
2015-May-26 13:33N 40°39' W 074°10'2 1.9
2015-May-26 12:30N 40°38' W 074°12'5 5.2
2015-May-26 11:33N 40°39' W 074°06'8 7.9
2015-May-26 10:33N 40°44' W 073°58'1 1.2
2015-May-26 09:33N 40°44' W 073°56'0 0.1
2015-May-26 08:33N 40°44' W 073°57'0 0.0
2015-May-26 07:31N 40°44' W 073°57'5 5.0
2015-May-26 06:33N 40°41' W 074°01'7 7.5
2015-May-26 05:33N 40°39' W 074°11'6 4.6
2015-May-26 04:15N 40°33' W 074°14'0 0.0
2015-May-26 02:04N 40°33' W 074°14'0 0.1
2015-May-25 20:22N 40°34' W 074°14'0 0.0
2015-May-25 18:32N 40°34' W 074°14'0 0.0
2015-May-25 17:32N 40°34' W 074°14'1 1.4
2015-May-25 16:33N 40°33' W 074°15'1 1.1
2015-May-25 15:17N 40°34' W 074°14'0 0.0
2015-May-25 14:25N 40°34' W 074°14'0 0.0
2015-May-25 13:29N 40°34' W 074°14'2 1.5
2015-May-25 12:25N 40°32' W 074°15'5 5.7
2015-May-25 11:33N 40°37' W 074°12'7 6.6
2015-May-25 10:33N 40°39' W 074°04'3 3.2
2015-May-25 09:33N 40°41' W 074°01'9 8.9
2015-May-25 08:33N 40°48' W 073°54'7 6.9
2015-May-25 07:31N 40°51' W 073°45'8 8.6
2015-May-25 06:33N 40°56' W 073°36'9 8.8
2015-May-25 05:33N 40°60' W 073°26'9 8.6
2015-May-25 04:33N 41°03' W 073°15'8 8.5
2015-May-25 03:33N 41°07' W 073°05'8 8.3
2015-May-25 02:33N 41°12' W 072°57'5 5.4
2015-May-25 01:33N 41°18' W 072°54'0 0.0
2015-May-25 00:33N 41°18' W 072°54'0 0.0
2015-May-24 23:33N 41°18' W 072°54'0 0.0
2015-May-24 22:33N 41°18' W 072°54'0 0.0
2015-May-24 21:32N 41°18' W 072°54'0 0.0
2015-May-24 20:33N 41°18' W 072°54'0 0.5
2015-May-24 19:33N 41°18' W 072°54'0 0.0
2015-May-24 18:33N 41°18' W 072°54'0 0.0
2015-May-24 17:33N 41°18' W 072°54'0 0.0
2015-May-24 16:33N 41°18' W 072°54'0 0.0
2015-May-24 15:33N 41°18' W 072°54'0 0.0
2015-May-24 14:31N 41°18' W 072°54'0 0.0
2015-May-24 13:33N 41°18' W 072°54'0 0.0
2015-May-24 12:24N 41°18' W 072°54'0 0.0
2015-May-24 11:27N 41°18' W 072°54'0 0.0
2015-May-24 10:33N 41°18' W 072°54'0 0.0
2015-May-24 09:33N 41°18' W 072°54'4 4.3
2015-May-24 08:34N 41°14' W 072°55'7 6.7
2015-May-24 07:33N 41°09' W 073°01'7 6.7
2015-May-24 06:34N 41°05' W 073°08'6 6.4
2015-May-24 05:33N 41°03' W 073°16'7 7.0
2015-May-24 04:33N 41°00' W 073°25'8 7.6
2015-May-24 03:33N 40°57' W 073°34'8 7.6
2015-May-24 02:33N 40°53' W 073°43'7 7.0
2015-May-24 01:33N 40°48' W 073°49'6 6.4
2015-May-24 00:33N 40°46' W 073°57'5 4.8
2015-May-23 23:33N 40°42' W 074°00'4 4.3
2015-May-23 22:33N 40°39' W 074°05'5 5.3
2015-May-23 21:33N 40°38' W 074°12'0 0.3
2015-May-23 20:33N 40°39' W 074°11'1 1.1
2015-May-23 19:33N 40°38' W 074°10'0 0.0
2015-May-23 18:33N 40°38' W 074°10'0 0.0
2015-May-23 17:33N 40°38' W 074°10'0 0.0
2015-May-23 16:33N 40°38' W 074°10'0 0.0
2015-May-23 15:34N 40°38' W 074°10'0 0.0
2015-May-23 14:33N 40°38' W 074°10'0 0.0
2015-May-23 13:33N 40°38' W 074°10'0 0.0
2015-May-23 12:33N 40°38' W 074°10'0 0.0
2015-May-23 11:33N 40°38' W 074°10'0 0.0
2015-May-23 10:33N 40°38' W 074°10'1 1.2
2015-May-23 09:33N 40°38' W 074°11'2 1.8
2015-May-23 08:33N 40°38' W 074°09'1 0.6
2015-May-23 07:33N 40°38' W 074°10'0 0.0
2015-May-23 06:33N 40°38' W 074°10'0 0.0
2015-May-23 05:33N 40°38' W 074°10'0 0.0
2015-May-23 04:33N 40°38' W 074°10'0 0.0
2015-May-23 03:33N 40°38' W 074°10'0 0.0
2015-May-23 02:33N 40°38' W 074°10'0 0.0
2015-May-23 01:33N 40°38' W 074°10'2 2.0
2015-May-23 00:33N 40°37' W 074°12'6 4.4
2015-May-22 23:14N 40°32' W 074°15'3 3.4
2015-May-22 22:25N 40°34' W 074°13'5 5.7
2015-May-22 21:34N 40°39' W 074°10'0 0.3
2015-May-22 20:33N 40°38' W 074°10'0 0.0
2015-May-22 19:33N 40°38' W 074°10'0 0.0
2015-May-22 18:33N 40°38' W 074°10'0 0.0
2015-May-22 17:33N 40°38' W 074°10'0 0.0
2015-May-22 16:33N 40°38' W 074°10'0 0.0
2015-May-22 15:32N 40°38' W 074°10'0 0.0
2015-May-22 14:33N 40°38' W 074°10'0 0.0
2015-May-22 13:33N 40°38' W 074°10'1 1.3
2015-May-22 12:33N 40°38' W 074°12'1 0.9
2015-May-22 11:32N 40°39' W 074°11'1 0.7
2015-May-22 10:33N 40°39' W 074°10'0 0.0
2015-May-22 09:33N 40°39' W 074°10'0 0.0
2015-May-22 08:33N 40°39' W 074°10'1 1.1
2015-May-22 07:33N 40°39' W 074°08'2 1.6
2015-May-22 06:33N 40°39' W 074°06'5 4.6
2015-May-22 05:32N 40°38' W 074°12'0 0.5
2015-May-22 04:33N 40°38' W 074°12'0 0.0
2015-May-22 02:21N 40°38' W 074°12'3 3.2
2015-May-22 01:27N 40°35' W 074°13'3 2.6
2015-May-22 00:09N 40°32' W 074°15'2 1.7
2015-May-21 23:15N 40°34' W 074°14'0 0.0
2015-May-21 22:30N 40°34' W 074°14'0 0.0
2015-May-21 21:27N 40°34' W 074°14'4 4.5
2015-May-21 20:33N 40°38' W 074°12'2 2.0
2015-May-21 19:33N 40°39' W 074°10'0 0.0
2015-May-21 18:33N 40°39' W 074°10'0 0.0
2015-May-21 17:33N 40°39' W 074°10'0 0.0
2015-May-21 16:33N 40°39' W 074°10'0 0.0
2015-May-21 15:33N 40°39' W 074°10'1 1.5
2015-May-21 14:33N 40°38' W 074°12'6 5.8
2015-May-21 13:28N 40°32' W 074°15'3 2.8
2015-May-21 12:26N 40°34' W 074°13'5 5.2
2015-May-21 11:33N 40°39' W 074°10'0 0.0
2015-May-21 10:33N 40°39' W 074°10'0 0.0
2015-May-21 09:33N 40°39' W 074°10'0 0.0
2015-May-21 08:33N 40°39' W 074°10'0 0.0
2015-May-21 07:33N 40°39' W 074°10'0 0.0
2015-May-21 06:33N 40°39' W 074°10'0 0.0
2015-May-21 05:33N 40°39' W 074°10'2 2.0
2015-May-21 04:33N 40°38' W 074°12'2 2.0
2015-May-21 03:33N 40°38' W 074°10'0 0.0
2015-May-21 02:33N 40°38' W 074°10'0 0.0
2015-May-21 01:33N 40°38' W 074°10'0 0.0
2015-May-21 00:33N 40°38' W 074°10'0 0.0
2015-May-20 23:33N 40°38' W 074°10'0 0.0
2015-May-20 22:33N 40°38' W 074°10'0 0.0
2015-May-20 21:33N 40°38' W 074°10'0 0.0
2015-May-20 20:33N 40°38' W 074°10'0 0.0
2015-May-20 19:33N 40°38' W 074°10'5 4.9
2015-May-20 18:33N 40°39' W 074°03'7 7.4
2015-May-20 17:33N 40°46' W 073°60'1 0.6
2015-May-20 16:33N 40°46' W 074°01'3 3.3
2015-May-20 15:33N 40°43' W 074°01'4 4.1
2015-May-20 14:33N 40°39' W 074°04'2 2.2
2015-May-20 13:33N 40°39' W 074°07'2 2.3
2015-May-20 12:33N 40°38' W 074°10'0 0.0
2015-May-20 11:33N 40°38' W 074°10'0 0.0
2015-May-20 10:33N 40°38' W 074°10'0 0.0
2015-May-20 09:33N 40°38' W 074°10'0 0.0
2015-May-20 08:33N 40°38' W 074°10'0 0.0
2015-May-20 07:33N 40°38' W 074°10'0 0.0
2015-May-20 06:33N 40°38' W 074°10'0 0.0
2015-May-20 05:33N 40°38' W 074°10'0 0.0
2015-May-20 04:33N 40°38' W 074°10'0 0.0
2015-May-20 03:33N 40°38' W 074°10'0 0.0
2015-May-20 02:33N 40°38' W 074°10'0 0.0
2015-May-20 01:33N 40°38' W 074°10'0 0.0
2015-May-20 00:33N 40°38' W 074°10'0 0.0
2015-May-19 23:33N 40°38' W 074°10'0 0.0
2015-May-19 22:33N 40°38' W 074°10'0 0.1
2015-May-19 21:33N 40°39' W 074°10'2 2.3
2015-May-19 20:33N 40°39' W 074°07'2 2.0
2015-May-19 19:33N 40°38' W 074°10'0 0.3
2015-May-19 18:33N 40°38' W 074°10'0 0.0
2015-May-19 17:29N 40°38' W 074°10'0 0.0
2015-May-19 16:33N 40°38' W 074°10'0 0.0
2015-May-19 15:33N 40°38' W 074°10'0 0.0
2015-May-19 14:33N 40°38' W 074°10'0 0.0
2015-May-19 13:28N 40°38' W 074°10'3 3.2
2015-May-19 12:33N 40°36' W 074°12'3 2.9
2015-May-19 11:33N 40°39' W 074°11'5 4.6
2015-May-19 10:33N 40°39' W 074°05'5 5.4
2015-May-19 09:33N 40°42' W 073°59'7 6.6
2015-May-19 08:31N 40°48' W 073°54'6 5.9
2015-May-19 07:32N 40°50' W 073°47'5 5.0
2015-May-19 06:30N 40°52' W 073°40'2 1.4
2015-May-19 05:07N 40°50' W 073°39'0 0.0
2015-May-19 04:29N 40°50' W 073°39'0 0.0
2015-May-19 03:13N 40°50' W 073°39'0 0.0
2015-May-19 02:32N 40°50' W 073°39'2 2.5
2015-May-19 01:33N 40°52' W 073°40'0 0.1
2015-May-19 00:13N 40°52' W 073°40'0 0.1
2015-May-18 23:33N 40°52' W 073°40'3 2.8
2015-May-18 22:33N 40°53' W 073°44'7 6.8
2015-May-18 21:33N 40°48' W 073°50'6 6.0
2015-May-18 20:33N 40°45' W 073°58'4 4.1
2015-May-18 19:33N 40°42' W 074°00'4 4.0
2015-May-18 18:33N 40°39' W 074°04'2 2.2
2015-May-18 17:33N 40°39' W 074°07'0 0.0
2015-May-18 16:32N 40°39' W 074°07'0 0.0
2015-May-18 15:33N 40°39' W 074°07'2 2.3
2015-May-18 14:33N 40°39' W 074°04'7 6.6
2015-May-18 13:33N 40°34' W 073°59'8 7.5
2015-May-18 12:29N 40°36' W 073°49'3 3.6
2015-May-18 11:32N 40°38' W 073°45'0 0.0
2015-May-18 10:33N 40°38' W 073°45'0 0.0
2015-May-18 09:32N 40°38' W 073°45'0 0.0
2015-May-18 08:19N 40°38' W 073°45'0 0.0
2015-May-18 03:11N 40°38' W 073°45'2 3.1
2015-May-18 02:33N 40°37' W 073°47'5 5.3
2015-May-18 01:33N 40°34' W 073°53'6 6.2
2015-May-18 00:33N 40°34' W 074°01'6 6.4
2015-May-17 23:33N 40°30' W 074°08'5 5.1
2015-May-17 22:29N 40°31' W 074°15'1 1.2
2015-May-17 21:18N 40°32' W 074°15'3 3.9
2015-May-17 20:32N 40°35' W 074°13'4 4.6
2015-May-17 19:34N 40°38' W 074°10'0 0.3
2015-May-17 18:33N 40°38' W 074°10'0 0.0
2015-May-17 17:33N 40°38' W 074°10'0 0.0
2015-May-17 16:33N 40°38' W 074°10'1 1.4
2015-May-17 15:33N 40°38' W 074°12'0 0.0
2015-May-17 14:33N 40°38' W 074°12'3 2.7
2015-May-17 13:32N 40°36' W 074°12'1 1.0
2015-May-17 12:16N 40°34' W 074°13'5 7.0
2015-May-17 11:33N 40°39' W 074°10'5 4.6
2015-May-17 10:33N 40°39' W 074°04'0 0.0
2015-May-17 09:33N 40°39' W 074°04'0 0.0
2015-May-17 08:33N 40°39' W 074°04'0 0.1
2015-May-17 07:33N 40°39' W 074°04'0 0.1
2015-May-17 06:33N 40°39' W 074°04'0 0.1
2015-May-17 05:33N 40°39' W 074°04'0 0.1
2015-May-17 04:33N 40°39' W 074°04'0 0.0
2015-May-17 03:33N 40°39' W 074°04'0 0.0
2015-May-17 02:33N 40°39' W 074°04'  

Dump ship's entire track history